Terminal Aerodrome Forecast
Issued by NWS Omaha/Valley, NE

Home | Current Version | Previous Version | Text Only | Print | Product List | Glossary On
Versions: 1 2 3 4 5 6 7 8 9 10 11 12 13 14 15 16
000
FTUS43 KOAX 240907 AAB
TAFOFK
TAF AMD
KOFK 240907Z 2409/2506 34007KT 6SM -SHRA SCT020 SCT040 OVC070
     FM241000 32014G20KT P6SM OVC050
     FM241500 33018G25KT P6SM BKN250
     FM250000 29005KT P6SM SCT250=

USA.gov is the U.S. government's official web portal to all federal, state and local government web resources and services.